Ravensdale, Washington
Current Conditions -  °F | °C
As of 6:53 AM on Friday 28 Nov 2014 (Local Time) from KRNT Reporting Station
Overcast Overcast  
Wind Chill: 57°   Ceiling: 2600
Heat Index: 57°   Visibility: 10mi
Dew Point: 49°   Wind: 10mph
Humidity: 74%   Direction: 140°SE
Pressure: 29.52"   Gusts: 20mph
Location:  47.35°N, 121.99°W
Report Text: KRNT 281453Z 14009G17KT 10SM BKN026 BKN031 OVC050 14/09 A2952 RMK AO2 SLP002 60000 T01390094 58028
Loading
Personal Weather Stations






























Interactive Weather Map New forecast layout! Learn more

10-Day Weather Forecast

Advertisements
Track Severe Weather on mobile